sensor_id;sensor_type;location;lat;lon;timestamp;pressure;altitude;pressure_sealevel;temperature;humidity
22025;BME280;11176;51.448;6.650;2023-07-13T00:00:09;36313.75;;;-141.29;68.49
22025;BME280;11176;51.448;6.650;2023-07-13T00:02:40;36297.81;;;-141.29;68.69
22025;BME280;11176;51.448;6.650;2023-07-13T00:05:07;36349.63;;;-141.29;68.76
22025;BME280;11176;51.448;6.650;2023-07-13T00:07:34;36321.72;;;-141.29;68.29
22025;BME280;11176;51.448;6.650;2023-07-13T00:10:02;36289.84;;;-141.29;67.25
22025;BME280;11176;51.448;6.650;2023-07-13T00:12:31;36297.81;;;-141.29;66.74
22025;BME280;11176;51.448;6.650;2023-07-13T00:15:00;36269.91;;;-141.29;66.10
22025;BME280;11176;51.448;6.650;2023-07-13T00:17:27;36277.88;;;-141.29;65.73
22025;BME280;11176;51.448;6.650;2023-07-13T00:19:55;36269.91;;;-141.29;65.71
22025;BME280;11176;51.448;6.650;2023-07-13T00:22:23;36269.91;;;-141.29;65.85
22025;BME280;11176;51.448;6.650;2023-07-13T00:24:54;36265.91;;;-141.29;66.48
22025;BME280;11176;51.448;6.650;2023-07-13T00:27:24;36281.88;;;-141.29;67.05
22025;BME280;11176;51.448;6.650;2023-07-13T00:29:53;36253.97;;;-141.29;66.49
22025;BME280;11176;51.448;6.650;2023-07-13T00:32:19;36281.88;;;-141.29;66.36
22025;BME280;11176;51.448;6.650;2023-07-13T00:34:46;36281.88;;;-141.29;67.24
22025;BME280;11176;51.448;6.650;2023-07-13T00:37:14;36273.91;;;-141.29;67.32
22025;BME280;11176;51.448;6.650;2023-07-13T00:39:41;36285.84;;;-141.29;67.99
22025;BME280;11176;51.448;6.650;2023-07-13T00:42:08;36309.78;;;-141.29;68.28
22025;BME280;11176;51.448;6.650;2023-07-13T00:44:35;36283.84;;;-141.29;69.03
22025;BME280;11176;51.448;6.650;2023-07-13T00:47:02;36281.88;;;-141.29;68.32
22025;BME280;11176;51.448;6.650;2023-07-13T00:49:30;36285.84;;;-141.29;68.38
22025;BME280;11176;51.448;6.650;2023-07-13T00:52:02;36265.91;;;-141.29;68.29
22025;BME280;11176;51.448;6.650;2023-07-13T00:54:33;36273.91;;;-141.29;68.27
22025;BME280;11176;51.448;6.650;2023-07-13T00:57:02;36253.97;;;-141.29;68.09
22025;BME280;11176;51.448;6.650;2023-07-13T00:59:29;36257.94;;;-141.29;68.51
22025;BME280;11176;51.448;6.650;2023-07-13T01:01:57;36307.78;;;-141.29;68.66
22025;BME280;11176;51.448;6.650;2023-07-13T01:04:25;36269.91;;;-141.29;68.71
22025;BME280;11176;51.448;6.650;2023-07-13T01:06:52;36269.91;;;-141.29;68.27
22025;BME280;11176;51.448;6.650;2023-07-13T01:09:20;36277.88;;;-141.29;68.82
22025;BME280;11176;51.448;6.650;2023-07-13T01:11:47;36281.88;;;-141.29;68.69
22025;BME280;11176;51.448;6.650;2023-07-13T01:14:15;36261.94;;;-141.29;68.68
22025;BME280;11176;51.448;6.650;2023-07-13T01:16:45;36293.81;;;-141.29;67.96
22025;BME280;11176;51.448;6.650;2023-07-13T01:19:29;36269.91;;;-141.29;68.50
22025;BME280;11176;51.448;6.650;2023-07-13T01:22:10;36269.91;;;-141.29;68.48
22025;BME280;11176;51.448;6.650;2023-07-13T01:24:40;36265.91;;;-141.29;68.89
22025;BME280;11176;51.448;6.650;2023-07-13T01:27:10;36253.97;;;-141.29;68.82
22025;BME280;11176;51.448;6.650;2023-07-13T01:29:40;36289.84;;;-141.29;68.92
22025;BME280;11176;51.448;6.650;2023-07-13T01:32:12;36289.84;;;-141.29;69.07
22025;BME280;11176;51.448;6.650;2023-07-13T01:34:39;36269.91;;;-141.29;69.14
22025;BME280;11176;51.448;6.650;2023-07-13T01:37:09;36261.94;;;-141.29;69.62
22025;BME280;11176;51.448;6.650;2023-07-13T01:39:36;36275.88;;;-141.29;69.73
22025;BME280;11176;51.448;6.650;2023-07-13T01:42:03;36305.78;;;-141.29;69.99
22025;BME280;11176;51.448;6.650;2023-07-13T01:44:30;36249.97;;;-141.29;70.28
22025;BME280;11176;51.448;6.650;2023-07-13T01:46:58;36305.78;;;-141.29;70.34
22025;BME280;11176;51.448;6.650;2023-07-13T01:49:24;36277.88;;;-141.29;70.66
22025;BME280;11176;51.448;6.650;2023-07-13T01:51:51;36279.88;;;-141.29;70.88
22025;BME280;11176;51.448;6.650;2023-07-13T01:54:17;36293.81;;;-141.29;71.06
22025;BME280;11176;51.448;6.650;2023-07-13T01:56:44;36285.84;;;-141.29;71.01
22025;BME280;11176;51.448;6.650;2023-07-13T01:59:11;36307.78;;;-141.29;71.34
22025;BME280;11176;51.448;6.650;2023-07-13T02:01:37;36303.78;;;-141.29;71.54
22025;BME280;11176;51.448;6.650;2023-07-13T02:04:04;36309.78;;;-141.29;71.41
22025;BME280;11176;51.448;6.650;2023-07-13T02:06:32;36299.81;;;-141.29;71.63
22025;BME280;11176;51.448;6.650;2023-07-13T02:08:59;36297.81;;;-141.29;72.15
22025;BME280;11176;51.448;6.650;2023-07-13T02:11:25;36283.84;;;-141.29;72.08
22025;BME280;11176;51.448;6.650;2023-07-13T02:14:00;36305.78;;;-141.29;72.66
22025;BME280;11176;51.448;6.650;2023-07-13T02:16:29;36305.78;;;-141.29;72.41
22025;BME280;11176;51.448;6.650;2023-07-13T02:18:55;36293.81;;;-141.29;73.42
22025;BME280;11176;51.448;6.650;2023-07-13T02:21:23;36293.81;;;-141.29;73.24
22025;BME280;11176;51.448;6.650;2023-07-13T02:23:51;36293.81;;;-141.29;73.53
22025;BME280;11176;51.448;6.650;2023-07-13T02:26:19;36323.72;;;-141.29;74.20
22025;BME280;11176;51.448;6.650;2023-07-13T02:28:46;36289.84;;;-141.29;74.20
22025;BME280;11176;51.448;6.650;2023-07-13T02:31:15;36309.78;;;-141.29;74.20
22025;BME280;11176;51.448;6.650;2023-07-13T02:33:42;36323.72;;;-141.29;74.25
22025;BME280;11176;51.448;6.650;2023-07-13T02:36:10;36317.75;;;-141.29;73.92
22025;BME280;11176;51.448;6.650;2023-07-13T02:38:37;36313.75;;;-141.29;73.92
22025;BME280;11176;51.448;6.650;2023-07-13T02:41:05;36311.75;;;-141.29;74.53
22025;BME280;11176;51.448;6.650;2023-07-13T02:43:33;36289.84;;;-141.29;74.49
22025;BME280;11176;51.448;6.650;2023-07-13T02:46:01;36309.78;;;-141.29;74.40
22025;BME280;11176;51.448;6.650;2023-07-13T02:48:35;36313.75;;;-141.29;74.27
22025;BME280;11176;51.448;6.650;2023-07-13T02:51:02;36293.81;;;-141.29;74.73
22025;BME280;11176;51.448;6.650;2023-07-13T02:53:29;36317.75;;;-141.29;74.71
22025;BME280;11176;51.448;6.650;2023-07-13T02:55:56;36295.81;;;-141.29;75.29
22025;BME280;11176;51.448;6.650;2023-07-13T02:58:22;36321.72;;;-141.29;75.19
22025;BME280;11176;51.448;6.650;2023-07-13T03:00:49;36337.66;;;-141.29;75.35
22025;BME280;11176;51.448;6.650;2023-07-13T03:03:16;36305.78;;;-141.29;75.46
22025;BME280;11176;51.448;6.650;2023-07-13T03:05:44;36325.72;;;-141.29;75.46
22025;BME280;11176;51.448;6.650;2023-07-13T03:08:12;36345.66;;;-141.29;76.11
22025;BME280;11176;51.448;6.650;2023-07-13T03:10:41;36341.66;;;-141.29;76.52
22025;BME280;11176;51.448;6.650;2023-07-13T03:13:09;36329.69;;;-141.29;76.72
22025;BME280;11176;51.448;6.650;2023-07-13T03:15:36;36311.75;;;-141.29;77.10
22025;BME280;11176;51.448;6.650;2023-07-13T03:18:03;36341.66;;;-141.29;76.76
22025;BME280;11176;51.448;6.650;2023-07-13T03:20:33;36341.66;;;-141.29;77.12
22025;BME280;11176;51.448;6.650;2023-07-13T03:23:01;36317.75;;;-141.29;77.58
22025;BME280;11176;51.448;6.650;2023-07-13T03:25:27;36325.72;;;-141.29;77.88
22025;BME280;11176;51.448;6.650;2023-07-13T03:27:54;36353.63;;;-141.29;78.03
22025;BME280;11176;51.448;6.650;2023-07-13T03:30:21;36333.69;;;-141.29;78.11
22025;BME280;11176;51.448;6.650;2023-07-13T03:32:49;36301.78;;;-141.29;78.17
22025;BME280;11176;51.448;6.650;2023-07-13T03:35:16;36349.63;;;-141.29;78.60
22025;BME280;11176;51.448;6.650;2023-07-13T03:37:43;36353.63;;;-141.29;78.50
22025;BME280;11176;51.448;6.650;2023-07-13T03:40:15;36359.59;;;-141.29;78.36
22025;BME280;11176;51.448;6.650;2023-07-13T03:42:44;36333.69;;;-141.29;78.67
22025;BME280;11176;51.448;6.650;2023-07-13T03:45:13;36369.56;;;-141.29;79.13
22025;BME280;11176;51.448;6.650;2023-07-13T03:47:40;36365.56;;;-141.29;79.18
22025;BME280;11176;51.448;6.650;2023-07-13T03:50:07;36345.66;;;-141.29;79.07
22025;BME280;11176;51.448;6.650;2023-07-13T03:52:34;36355.59;;;-141.29;79.32
22025;BME280;11176;51.448;6.650;2023-07-13T03:55:01;36367.56;;;-141.29;79.33
22025;BME280;11176;51.448;6.650;2023-07-13T03:57:27;36337.66;;;-141.29;79.33
22025;BME280;11176;51.448;6.650;2023-07-13T03:59:56;36377.53;;;-141.29;79.51
22025;BME280;11176;51.448;6.650;2023-07-13T04:02:22;36377.53;;;-141.29;79.56
22025;BME280;11176;51.448;6.650;2023-07-13T04:04:49;36397.47;;;-141.29;80.05
22025;BME280;11176;51.448;6.650;2023-07-13T04:07:15;36399.47;;;-141.29;80.10
22025;BME280;11176;51.448;6.650;2023-07-13T04:09:42;36423.38;;;-141.29;80.20
22025;BME280;11176;51.448;6.650;2023-07-13T04:12:09;36385.50;;;-141.29;80.31
22025;BME280;11176;51.448;6.650;2023-07-13T04:14:37;36405.44;;;-141.29;80.54
22025;BME280;11176;51.448;6.650;2023-07-13T04:17:03;36405.44;;;-141.29;80.59
22025;BME280;11176;51.448;6.650;2023-07-13T04:19:30;36393.47;;;-141.29;80.72
22025;BME280;11176;51.448;6.650;2023-07-13T04:21:57;36395.47;;;-141.29;81.27
22025;BME280;11176;51.448;6.650;2023-07-13T04:24:23;36415.41;;;-141.29;81.27
22025;BME280;11176;51.448;6.650;2023-07-13T04:26:49;36409.41;;;-141.29;81.19
22025;BME280;11176;51.448;6.650;2023-07-13T04:29:16;36449.28;;;-141.29;81.46
22025;BME280;11176;51.448;6.650;2023-07-13T04:31:42;36413.41;;;-141.29;81.53
22025;BME280;11176;51.448;6.650;2023-07-13T04:34:09;36453.28;;;-141.29;81.77
22025;BME280;11176;51.448;6.650;2023-07-13T04:36:35;36417.38;;;-141.29;81.93
22025;BME280;11176;51.448;6.650;2023-07-13T04:39:04;36449.28;;;-141.29;82.29
22025;BME280;11176;51.448;6.650;2023-07-13T04:41:30;36469.22;;;-141.29;82.37
22025;BME280;11176;51.448;6.650;2023-07-13T04:43:57;36467.22;;;-141.29;82.61
22025;BME280;11176;51.448;6.650;2023-07-13T04:46:23;36461.25;;;-141.29;82.79
22025;BME280;11176;51.448;6.650;2023-07-13T04:48:50;36489.16;;;-141.29;82.68
22025;BME280;11176;51.448;6.650;2023-07-13T04:51:20;36485.16;;;-141.29;82.92
22025;BME280;11176;51.448;6.650;2023-07-13T04:53:46;36481.16;;;-141.29;83.09
22025;BME280;11176;51.448;6.650;2023-07-13T04:56:13;36509.06;;;-141.29;83.16
22025;BME280;11176;51.448;6.650;2023-07-13T04:58:39;36501.09;;;-141.29;83.08
22025;BME280;11176;51.448;6.650;2023-07-13T05:01:06;36485.16;;;-141.29;83.05
22025;BME280;11176;51.448;6.650;2023-07-13T05:03:34;36525.03;;;-141.29;83.48
22025;BME280;11176;51.448;6.650;2023-07-13T05:06:04;36521.03;;;-141.29;83.58
22025;BME280;11176;51.448;6.650;2023-07-13T05:08:31;36521.03;;;-141.29;84.47
22025;BME280;11176;51.448;6.650;2023-07-13T05:11:04;36548.94;;;-141.29;85.00
22025;BME280;11176;51.448;6.650;2023-07-13T05:13:31;36533.00;;;-141.29;84.78
22025;BME280;11176;51.448;6.650;2023-07-13T05:15:59;36568.88;;;-141.29;84.69
22025;BME280;11176;51.448;6.650;2023-07-13T05:18:27;36556.91;;;-141.29;84.74
22025;BME280;11176;51.448;6.650;2023-07-13T05:21:03;36568.88;;;-141.29;84.40
22025;BME280;11176;51.448;6.650;2023-07-13T05:23:31;36596.78;;;-141.29;84.40
22025;BME280;11176;51.448;6.650;2023-07-13T05:25:58;36574.84;;;-141.29;84.85
22025;BME280;11176;51.448;6.650;2023-07-13T05:28:26;36612.72;;;-141.29;84.99
22025;BME280;11176;51.448;6.650;2023-07-13T05:30:55;36596.78;;;-141.29;85.09
22025;BME280;11176;51.448;6.650;2023-07-13T05:33:22;36600.75;;;-141.29;85.00
22025;BME280;11176;51.448;6.650;2023-07-13T05:35:49;36598.75;;;-141.29;85.02
22025;BME280;11176;51.448;6.650;2023-07-13T05:38:16;36644.63;;;-141.29;84.96
22025;BME280;11176;51.448;6.650;2023-07-13T05:40:43;36622.69;;;-141.29;84.69
22025;BME280;11176;51.448;6.650;2023-07-13T05:43:11;36644.63;;;-141.29;85.33
22025;BME280;11176;51.448;6.650;2023-07-13T05:45:38;36640.63;;;-141.29;85.27
22025;BME280;11176;51.448;6.650;2023-07-13T05:48:04;36654.56;;;-141.29;85.15
22025;BME280;11176;51.448;6.650;2023-07-13T05:50:31;36652.59;;;-141.29;84.81
22025;BME280;11176;51.448;6.650;2023-07-13T05:52:58;36688.47;;;-141.29;84.55
22025;BME280;11176;51.448;6.650;2023-07-13T05:55:24;36652.59;;;-141.29;84.44
22025;BME280;11176;51.448;6.650;2023-07-13T05:57:51;36656.56;;;-141.29;84.21
22025;BME280;11176;51.448;6.650;2023-07-13T06:00:17;36672.50;;;-141.29;84.09
22025;BME280;11176;51.448;6.650;2023-07-13T06:02:44;36678.50;;;-141.29;83.97
22025;BME280;11176;51.448;6.650;2023-07-13T06:05:12;36702.41;;;-141.29;84.39
22025;BME280;11176;51.448;6.650;2023-07-13T06:07:41;36696.44;;;-141.29;84.05
22025;BME280;11176;51.448;6.650;2023-07-13T06:10:08;36712.38;;;-141.29;83.80
22025;BME280;11176;51.448;6.650;2023-07-13T06:12:34;36696.44;;;-141.29;83.91
22025;BME280;11176;51.448;6.650;2023-07-13T06:15:01;36714.38;;;-141.29;83.34
22025;BME280;11176;51.448;6.650;2023-07-13T06:17:28;36708.41;;;-141.29;83.58
22025;BME280;11176;51.448;6.650;2023-07-13T06:19:54;36704.41;;;-141.29;83.80
22025;BME280;11176;51.448;6.650;2023-07-13T06:22:21;36684.47;;;-141.29;83.72
22025;BME280;11176;51.448;6.650;2023-07-13T06:24:47;36704.41;;;-141.29;83.44
22025;BME280;11176;51.448;6.650;2023-07-13T06:27:14;36708.41;;;-141.29;83.36
22025;BME280;11176;51.448;6.650;2023-07-13T06:29:40;36728.31;;;-141.29;83.83
22025;BME280;11176;51.448;6.650;2023-07-13T06:32:07;36704.41;;;-141.29;83.86
22025;BME280;11176;51.448;6.650;2023-07-13T06:34:34;36738.28;;;-141.29;84.08
22025;BME280;11176;51.448;6.650;2023-07-13T06:37:00;36756.22;;;-141.29;84.13
22025;BME280;11176;51.448;6.650;2023-07-13T06:39:27;36752.25;;;-141.29;84.00
22025;BME280;11176;51.448;6.650;2023-07-13T06:41:53;36760.22;;;-141.29;83.65
22025;BME280;11176;51.448;6.650;2023-07-13T06:44:20;36792.13;;;-141.29;83.53
22025;BME280;11176;51.448;6.650;2023-07-13T06:46:47;36776.16;;;-141.29;83.18
22025;BME280;11176;51.448;6.650;2023-07-13T06:49:13;36816.03;;;-141.29;83.14
22025;BME280;11176;51.448;6.650;2023-07-13T06:51:39;36776.16;;;-141.29;82.28
22025;BME280;11176;51.448;6.650;2023-07-13T06:54:06;36800.09;;;-141.29;82.24
22025;BME280;11176;51.448;6.650;2023-07-13T06:56:32;36788.13;;;-141.29;82.14
22025;BME280;11176;51.448;6.650;2023-07-13T06:58:59;36772.19;;;-141.29;82.11
22025;BME280;11176;51.448;6.650;2023-07-13T07:01:26;36752.25;;;-141.29;81.91
22025;BME280;11176;51.448;6.650;2023-07-13T07:03:52;36804.06;;;-141.29;81.75
22025;BME280;11176;51.448;6.650;2023-07-13T07:06:20;36790.13;;;-141.29;81.49
22025;BME280;11176;51.448;6.650;2023-07-13T07:08:50;36768.19;;;-141.29;81.40
22025;BME280;11176;51.448;6.650;2023-07-13T07:11:22;36788.13;;;-141.29;81.27
22025;BME280;11176;51.448;6.650;2023-07-13T07:13:50;36804.06;;;-141.29;81.13
22025;BME280;11176;51.448;6.650;2023-07-13T07:16:17;36796.09;;;-141.29;80.61
22025;BME280;11176;51.448;6.650;2023-07-13T07:18:45;36788.13;;;-141.29;79.99
22025;BME280;11176;51.448;6.650;2023-07-13T07:21:11;36808.06;;;-141.29;80.09
22025;BME280;11176;51.448;6.650;2023-07-13T07:23:39;36794.09;;;-141.29;80.11
22025;BME280;11176;51.448;6.650;2023-07-13T07:26:05;36784.13;;;-141.29;79.70
22025;BME280;11176;51.448;6.650;2023-07-13T07:28:35;36786.13;;;-141.29;79.38
22025;BME280;11176;51.448;6.650;2023-07-13T07:31:04;36804.06;;;-141.29;79.58
22025;BME280;11176;51.448;6.650;2023-07-13T07:33:34;36786.13;;;-141.29;78.97
22025;BME280;11176;51.448;6.650;2023-07-13T07:36:01;36824.00;;;-141.29;79.02
22025;BME280;11176;51.448;6.650;2023-07-13T07:38:31;36828.00;;;-141.29;79.72
22025;BME280;11176;51.448;6.650;2023-07-13T07:40:57;36855.91;;;-141.29;79.46
22025;BME280;11176;51.448;6.650;2023-07-13T07:43:27;36828.00;;;-141.29;79.01
22025;BME280;11176;51.448;6.650;2023-07-13T07:45:54;36808.06;;;-141.29;77.90
22025;BME280;11176;51.448;6.650;2023-07-13T07:48:20;36804.06;;;-141.29;77.88
22025;BME280;11176;51.448;6.650;2023-07-13T07:50:47;36812.03;;;-141.29;78.06
22025;BME280;11176;51.448;6.650;2023-07-13T07:53:13;36784.13;;;-141.29;77.71
22025;BME280;11176;51.448;6.650;2023-07-13T07:55:40;36820.03;;;-141.29;77.53
22025;BME280;11176;51.448;6.650;2023-07-13T07:58:26;36816.03;;;-141.29;77.03
22025;BME280;11176;51.448;6.650;2023-07-13T08:01:04;36816.03;;;-141.29;76.51
22025;BME280;11176;51.448;6.650;2023-07-13T08:03:34;36826.00;;;-141.29;76.33
22025;BME280;11176;51.448;6.650;2023-07-13T08:06:03;36816.03;;;-141.29;76.36
22025;BME280;11176;51.448;6.650;2023-07-13T08:08:34;36824.00;;;-141.29;76.35
22025;BME280;11176;51.448;6.650;2023-07-13T08:11:05;36784.13;;;-141.29;75.54
22025;BME280;11176;51.448;6.650;2023-07-13T08:13:36;36800.09;;;-141.29;75.96
22025;BME280;11176;51.448;6.650;2023-07-13T08:16:04;36828.00;;;-141.29;75.57
22025;BME280;11176;51.448;6.650;2023-07-13T08:18:32;36818.03;;;-141.29;75.04
22025;BME280;11176;51.448;6.650;2023-07-13T08:21:03;36835.97;;;-141.29;74.67
22025;BME280;11176;51.448;6.650;2023-07-13T08:23:30;36851.91;;;-141.29;74.63
22025;BME280;11176;51.448;6.650;2023-07-13T08:25:59;36839.94;;;-141.29;74.57
22025;BME280;11176;51.448;6.650;2023-07-13T08:28:28;36824.00;;;-141.29;74.01
22025;BME280;11176;51.448;6.650;2023-07-13T08:30:54;36824.00;;;-141.29;73.57
22025;BME280;11176;51.448;6.650;2023-07-13T08:33:22;36843.94;;;-141.29;73.88
22025;BME280;11176;51.448;6.650;2023-07-13T08:35:50;36839.94;;;-141.29;73.66
22025;BME280;11176;51.448;6.650;2023-07-13T08:38:18;36851.91;;;-141.29;74.59
22025;BME280;11176;51.448;6.650;2023-07-13T08:40:50;36847.94;;;-141.29;73.77
22025;BME280;11176;51.448;6.650;2023-07-13T08:43:22;36877.81;;;-141.29;73.37
22025;BME280;11176;51.448;6.650;2023-07-13T08:46:02;36855.91;;;-141.29;72.79
22025;BME280;11176;51.448;6.650;2023-07-13T08:48:38;36873.84;;;-141.29;72.63
22025;BME280;11176;51.448;6.650;2023-07-13T08:51:26;36869.84;;;-141.29;72.65
22025;BME280;11176;51.448;6.650;2023-07-13T08:54:00;36841.94;;;-141.29;72.80
22025;BME280;11176;51.448;6.650;2023-07-13T08:56:29;36833.97;;;-141.29;72.19
22025;BME280;11176;51.448;6.650;2023-07-13T08:58:58;36891.78;;;-141.29;72.54
22025;BME280;11176;51.448;6.650;2023-07-13T09:01:29;36851.91;;;-141.29;71.63
22025;BME280;11176;51.448;6.650;2023-07-13T09:04:14;36851.91;;;-141.29;71.32
22025;BME280;11176;51.448;6.650;2023-07-13T09:07:03;36867.84;;;-141.29;71.41
22025;BME280;11176;51.448;6.650;2023-07-13T09:12:25;36879.81;;;-141.29;70.98
22025;BME280;11176;51.448;6.650;2023-07-13T09:14:55;36889.78;;;-141.29;70.85
22025;BME280;11176;51.448;6.650;2023-07-13T09:18:01;36903.75;;;-141.29;71.08
22025;BME280;11176;51.448;6.650;2023-07-13T09:20:29;36851.91;;;-141.29;70.03
22025;BME280;11176;51.448;6.650;2023-07-13T09:22:59;36867.84;;;-141.29;70.19
22025;BME280;11176;51.448;6.650;2023-07-13T09:25:30;36828.00;;;-141.29;68.92
22025;BME280;11176;51.448;6.650;2023-07-13T09:28:28;36828.00;;;-141.29;68.74
22025;BME280;11176;51.448;6.650;2023-07-13T09:31:09;36841.94;;;-141.29;68.38
22025;BME280;11176;51.448;6.650;2023-07-13T09:33:40;36879.81;;;-141.29;68.26
22025;BME280;11176;51.448;6.650;2023-07-13T09:36:28;36871.84;;;-141.29;68.27
22025;BME280;11176;51.448;6.650;2023-07-13T09:39:27;36855.91;;;-141.29;68.10
22025;BME280;11176;51.448;6.650;2023-07-13T09:44:50;36851.91;;;-141.29;67.25
22025;BME280;11176;51.448;6.650;2023-07-13T09:47:23;36859.88;;;-141.29;67.25
22025;BME280;11176;51.448;6.650;2023-07-13T09:50:18;36855.91;;;-141.29;67.39
22025;BME280;11176;51.448;6.650;2023-07-13T09:52:49;36873.84;;;-141.29;67.30
22025;BME280;11176;51.448;6.650;2023-07-13T09:57:52;36863.88;;;-141.29;66.17
22025;BME280;11176;51.448;6.650;2023-07-13T10:00:28;36871.84;;;-141.29;66.37
22025;BME280;11176;51.448;6.650;2023-07-13T10:03:19;36831.97;;;-141.29;65.47
22025;BME280;11176;51.448;6.650;2023-07-13T10:05:50;36847.94;;;-141.29;64.67
22025;BME280;11176;51.448;6.650;2023-07-13T10:08:19;36843.94;;;-141.29;65.23
22025;BME280;11176;51.448;6.650;2023-07-13T10:10:52;36831.97;;;-141.29;63.05
22025;BME280;11176;51.448;6.650;2023-07-13T10:13:35;36790.13;;;-141.29;62.25
22025;BME280;11176;51.448;6.650;2023-07-13T10:16:06;36788.13;;;-141.29;61.93
22025;BME280;11176;51.448;6.650;2023-07-13T10:18:42;36814.03;;;-141.29;62.07
22025;BME280;11176;51.448;6.650;2023-07-13T10:21:21;36814.03;;;-141.29;61.80
22025;BME280;11176;51.448;6.650;2023-07-13T10:23:56;36820.03;;;-141.29;61.89
22025;BME280;11176;51.448;6.650;2023-07-13T10:26:29;36820.03;;;-141.29;61.86
22025;BME280;11176;51.448;6.650;2023-07-13T10:29:02;36780.16;;;-141.29;60.55
22025;BME280;11176;51.448;6.650;2023-07-13T10:31:30;36764.22;;;-141.29;59.17
22025;BME280;11176;51.448;6.650;2023-07-13T10:33:57;36784.13;;;-141.29;59.14
22025;BME280;11176;51.448;6.650;2023-07-13T10:36:31;36776.16;;;-141.29;59.36
22025;BME280;11176;51.448;6.650;2023-07-13T10:39:02;36730.31;;;-141.29;57.83
22025;BME280;11176;51.448;6.650;2023-07-13T10:41:34;36734.31;;;-141.29;57.91
22025;BME280;11176;51.448;6.650;2023-07-13T10:44:01;36740.28;;;-141.29;58.23
22025;BME280;11176;51.448;6.650;2023-07-13T10:46:30;36752.25;;;-141.29;58.09
22025;BME280;11176;51.448;6.650;2023-07-13T10:49:01;36736.31;;;-141.29;57.71
22025;BME280;11176;51.448;6.650;2023-07-13T10:51:30;36716.38;;;-141.29;56.78
22025;BME280;11176;51.448;6.650;2023-07-13T10:54:15;36700.41;;;-141.29;54.57
22025;BME280;11176;51.448;6.650;2023-07-13T10:56:48;36712.38;;;-141.29;55.63
22025;BME280;11176;51.448;6.650;2023-07-13T10:59:26;36708.41;;;-141.29;55.74
22025;BME280;11176;51.448;6.650;2023-07-13T11:01:57;36704.41;;;-141.29;55.83
22025;BME280;11176;51.448;6.650;2023-07-13T11:04:26;36750.25;;;-141.29;55.04
22025;BME280;11176;51.448;6.650;2023-07-13T11:06:58;36728.31;;;-141.29;55.06
22025;BME280;11176;51.448;6.650;2023-07-13T11:09:38;36748.25;;;-141.29;55.26
22025;BME280;11176;51.448;6.650;2023-07-13T11:12:09;36742.28;;;-141.29;54.58
22025;BME280;11176;51.448;6.650;2023-07-13T11:17:33;36696.44;;;-141.29;52.07
22025;BME280;11176;51.448;6.650;2023-07-13T11:27:51;36712.38;;;-141.29;48.57
22025;BME280;11176;51.448;6.650;2023-07-13T11:30:23;36620.69;;;-141.29;46.11
22025;BME280;11176;51.448;6.650;2023-07-13T11:35:53;36644.63;;;-141.29;44.46
22025;BME280;11176;51.448;6.650;2023-07-13T11:40:55;36540.97;;;-141.29;40.85
22025;BME280;11176;51.448;6.650;2023-07-13T11:43:24;36604.75;;;-141.29;41.38
22025;BME280;11176;51.448;6.650;2023-07-13T11:45:52;36572.84;;;-141.29;40.77
22025;BME280;11176;51.448;6.650;2023-07-13T11:48:25;36560.91;;;-141.29;39.97
22025;BME280;11176;51.448;6.650;2023-07-13T11:50:56;36540.97;;;-141.29;38.55
22025;BME280;11176;51.448;6.650;2023-07-13T11:53:27;36523.03;;;-141.29;37.94
22025;BME280;11176;51.448;6.650;2023-07-13T11:55:55;36540.97;;;-141.29;37.93
22025;BME280;11176;51.448;6.650;2023-07-13T11:58:24;36533.00;;;-141.29;37.47
22025;BME280;11176;51.448;6.650;2023-07-13T12:00:52;36531.00;;;-141.29;37.11
22025;BME280;11176;51.448;6.650;2023-07-13T12:03:22;36493.13;;;-141.29;36.22
22025;BME280;11176;51.448;6.650;2023-07-13T12:05:58;36491.13;;;-141.29;36.01
22025;BME280;11176;51.448;6.650;2023-07-13T12:08:25;36477.19;;;-141.29;35.66
22025;BME280;11176;51.448;6.650;2023-07-13T12:10:58;36447.28;;;-141.29;35.40
22025;BME280;11176;51.448;6.650;2023-07-13T12:13:26;36465.22;;;-141.29;35.82
22025;BME280;11176;51.448;6.650;2023-07-13T12:15:56;36453.28;;;-141.29;35.30
22025;BME280;11176;51.448;6.650;2023-07-13T12:18:28;36413.41;;;-141.29;34.88
22025;BME280;11176;51.448;6.650;2023-07-13T12:20:57;36389.50;;;-141.29;35.40
22025;BME280;11176;51.448;6.650;2023-07-13T12:25:52;36361.59;;;-141.29;35.15
22025;BME280;11176;51.448;6.650;2023-07-13T12:28:31;36369.56;;;-141.29;35.84
22025;BME280;11176;51.448;6.650;2023-07-13T12:31:00;36345.66;;;-141.29;36.30
22025;BME280;11176;51.448;6.650;2023-07-13T12:33:31;36349.63;;;-141.29;36.67
22025;BME280;11176;51.448;6.650;2023-07-13T12:36:03;36381.53;;;-141.29;37.22
22025;BME280;11176;51.448;6.650;2023-07-13T12:38:32;36347.63;;;-141.29;37.30
22025;BME280;11176;51.448;6.650;2023-07-13T12:41:01;36361.59;;;-141.29;38.05
22025;BME280;11176;51.448;6.650;2023-07-13T12:43:31;36363.56;;;-141.29;38.67
22025;BME280;11176;51.448;6.650;2023-07-13T12:46:16;36375.53;;;-141.29;40.55
22025;BME280;11176;51.448;6.650;2023-07-13T12:48:44;36473.19;;;-141.29;44.26
22025;BME280;11176;51.448;6.650;2023-07-13T12:51:25;36521.03;;;-141.29;46.46
22025;BME280;11176;51.448;6.650;2023-07-13T12:54:10;36515.06;;;-141.29;47.69
22025;BME280;11176;51.448;6.650;2023-07-13T12:56:39;36535.00;;;-141.29;48.67
22025;BME280;11176;51.448;6.650;2023-07-13T12:59:06;36501.09;;;-141.29;47.76
22025;BME280;11176;51.448;6.650;2023-07-13T13:01:41;36461.25;;;-141.29;45.41
22025;BME280;11176;51.448;6.650;2023-07-13T13:04:09;36441.31;;;-141.29;45.09
22025;BME280;11176;51.448;6.650;2023-07-13T13:06:37;36437.31;;;-141.29;44.41
22025;BME280;11176;51.448;6.650;2023-07-13T13:11:37;36451.28;;;-141.29;44.92
22025;BME280;11176;51.448;6.650;2023-07-13T13:14:04;36443.31;;;-141.29;44.62
22025;BME280;11176;51.448;6.650;2023-07-13T13:16:35;36429.34;;;-141.29;44.67
22025;BME280;11176;51.448;6.650;2023-07-13T13:19:26;36429.34;;;-141.29;44.45
22025;BME280;11176;51.448;6.650;2023-07-13T13:21:55;36457.25;;;-141.29;44.68